createdAt,value
2022-10-11T00:00:00.000Z,9.46
2022-10-11T00:15:00.000Z,9.4
2022-10-11T00:30:00.000Z,8.92
2022-10-11T00:45:00.000Z,8.47
2022-10-11T01:00:00.000Z,8.06
2022-10-11T01:15:00.000Z,8.6
2022-10-11T01:30:00.000Z,7.65
2022-10-11T01:45:00.000Z,8.16
2022-10-11T02:00:00.000Z,8.02
2022-10-11T02:15:00.000Z,8.25
2022-10-11T02:30:00.000Z,7.79
2022-10-11T02:45:00.000Z,7.29
2022-10-11T03:00:00.000Z,7.62
2022-10-11T03:15:00.000Z,7.24
2022-10-11T03:30:00.000Z,7.38
2022-10-11T03:45:00.000Z,8.27
2022-10-11T04:00:00.000Z,7.41
2022-10-11T04:15:00.000Z,8.38
2022-10-11T04:30:00.000Z,8.95
2022-10-11T04:45:00.000Z,7.8
2022-10-11T05:00:00.000Z,7.75
2022-10-11T05:15:00.000Z,7.92
2022-10-11T05:30:00.000Z,7.93
2022-10-11T05:45:00.000Z,7.58
2022-10-11T06:00:00.000Z,8.09
2022-10-11T06:15:00.000Z,9.14
2022-10-11T06:30:00.000Z,8.62
2022-10-11T06:45:00.000Z,8.88
2022-10-11T07:00:00.000Z,9.81
2022-10-11T07:15:00.000Z,10.93
2022-10-11T07:30:00.000Z,9.29
2022-10-11T07:45:00.000Z,8.69
2022-10-11T08:00:00.000Z,8.69
2022-10-11T08:15:00.000Z,9.66
2022-10-11T08:30:00.000Z,7.89
2022-10-11T08:45:00.000Z,6.65
2022-10-11T09:00:00.000Z,5.34
2022-10-11T09:15:00.000Z,5.4
2022-10-11T09:30:00.000Z,4.84
2022-10-11T09:45:00.000Z,5.11
2022-10-11T10:00:00.000Z,4.62
2022-10-11T10:15:00.000Z,3.96
2022-10-11T10:30:00.000Z,3.73
2022-10-11T10:45:00.000Z,4.27
2022-10-11T11:00:00.000Z,4.74
2022-10-11T11:15:00.000Z,3.95
2022-10-11T11:30:00.000Z,4.39
2022-10-11T11:45:00.000Z,5.14
2022-10-11T12:00:00.000Z,5.31
2022-10-11T12:15:00.000Z,5.22
2022-10-11T12:30:00.000Z,5
2022-10-11T12:45:00.000Z,4.75
2022-10-11T13:00:00.000Z,5.08
2022-10-11T13:15:00.000Z,6.66
2022-10-11T13:30:00.000Z,6.86
2022-10-11T13:45:00.000Z,4.93
2022-10-11T14:00:00.000Z,5.28
2022-10-11T14:15:00.000Z,4.93
2022-10-11T14:30:00.000Z,5.48
2022-10-11T14:45:00.000Z,5.12
2022-10-11T15:00:00.000Z,5.32
2022-10-11T15:15:00.000Z,5.16
2022-10-11T15:30:00.000Z,5.73
2022-10-11T15:45:00.000Z,5.91
2022-10-11T16:00:00.000Z,6.8
2022-10-11T16:15:00.000Z,6.47
2022-10-11T16:30:00.000Z,6.49
2022-10-11T16:45:00.000Z,7.45
2022-10-11T17:00:00.000Z,9.2
2022-10-11T17:15:00.000Z,10.66
2022-10-11T17:30:00.000Z,11.31
2022-10-11T17:45:00.000Z,11.56
2022-10-11T18:00:00.000Z,11.81
2022-10-11T18:15:00.000Z,13.14
2022-10-11T18:30:00.000Z,12.8
2022-10-11T18:45:00.000Z,13.75
2022-10-11T19:00:00.000Z,14.72
2022-10-11T19:15:00.000Z,14.02
2022-10-11T19:30:00.000Z,14.74
2022-10-11T19:45:00.000Z,16.41
2022-10-11T20:00:00.000Z,17.36
2022-10-11T20:15:00.000Z,16.29
2022-10-11T20:30:00.000Z,14.74
2022-10-11T20:45:00.000Z,13.84
2022-10-11T21:00:00.000Z,13.45
2022-10-11T21:15:00.000Z,14.02
2022-10-11T21:30:00.000Z,14.89
2022-10-11T21:45:00.000Z,13.52
2022-10-11T22:00:00.000Z,13.42
2022-10-11T22:15:00.000Z,12.84
2022-10-11T22:30:00.000Z,11.66
2022-10-11T22:45:00.000Z,11.68
2022-10-11T23:00:00.000Z,11.59
2022-10-11T23:15:00.000Z,12.05
2022-10-11T23:30:00.000Z,13.51
2022-10-11T23:45:00.000Z,17.21
